createdAt,value
2023-03-23T16:18:38.687Z,37.67
2023-03-23T16:23:33.712Z,38.18
2023-03-23T16:41:00.013Z,39.73
2023-03-23T16:44:10.656Z,39.46
2023-03-23T16:48:05.598Z,39.64
2023-03-23T16:51:24.450Z,40.12
2023-03-23T16:54:36.828Z,40.58
2023-03-23T16:57:44.150Z,40.66
2023-03-23T17:05:04.562Z,42.08
2023-03-23T17:08:43.279Z,42.30
2023-03-23T17:11:57.482Z,42.85
2023-03-23T17:15:18.659Z,43.43
2023-03-23T17:18:51.309Z,43.22
2023-03-23T17:21:56.633Z,43.15
2023-03-23T17:25:15.683Z,42.66
2023-03-23T17:28:57.599Z,43.17
2023-03-23T17:32:26.234Z,43.59
2023-03-23T17:39:44.881Z,45.08
2023-03-23T17:43:08.303Z,44.85
2023-03-23T17:50:42.229Z,45.21
2023-03-23T18:01:37.262Z,45.09
2023-03-23T18:05:46.006Z,45.79
2023-03-23T18:09:26.233Z,46.30
2023-03-23T18:12:39.442Z,46.49
2023-03-23T18:16:17.214Z,46.39
2023-03-23T18:19:53.755Z,46.68
2023-03-23T18:22:59.600Z,47.08
2023-03-23T18:26:18.329Z,47.02
2023-03-23T18:30:20.557Z,46.87
2023-03-23T18:33:29.891Z,47.36
2023-03-23T18:36:43.262Z,47.24
2023-03-23T18:40:05.380Z,47.67
2023-03-23T18:43:20.840Z,47.54
2023-03-23T18:46:54.508Z,47.75
2023-03-23T18:50:12.118Z,47.89
2023-03-23T18:53:20.712Z,48.54
2023-03-23T18:56:48.334Z,48.44
2023-03-23T18:59:59.088Z,48.91
2023-03-23T19:03:16.100Z,49.09
2023-03-23T19:06:37.380Z,49.44
2023-03-23T19:10:08.820Z,49.27
2023-03-23T19:13:24.873Z,49.95
2023-03-23T19:16:40.635Z,50.04
2023-03-23T19:21:12.539Z,50.10
2023-03-23T19:29:45.430Z,50.52
2023-03-23T19:33:54.514Z,50.24
2023-03-23T19:37:17.502Z,50.90
2023-03-23T19:40:42.582Z,50.70
2023-03-23T19:43:58.075Z,50.63
2023-03-23T19:47:23.354Z,50.89
2023-03-23T19:50:41.510Z,50.96
2023-03-23T19:54:07.599Z,50.59
2023-03-23T19:57:23.252Z,51.36
2023-03-23T20:00:29.074Z,51.16
2023-03-23T20:03:39.516Z,51.49
2023-03-23T20:07:03.191Z,51.80
2023-03-23T20:10:33.494Z,51.92
2023-03-23T20:13:52.819Z,52.00
2023-03-23T20:17:09.754Z,52.79
2023-03-23T20:20:29.583Z,53.29
2023-03-23T20:27:08.076Z,53.14
2023-03-23T20:30:43.450Z,53.86
2023-03-23T20:34:00.856Z,54.30
2023-03-23T20:37:13.137Z,54.01
2023-03-23T20:44:18.360Z,54.30
2023-03-23T20:47:25.146Z,52.56
2023-03-23T20:50:34.436Z,52.30
2023-03-23T20:53:45.913Z,51.88
2023-03-23T20:57:09.907Z,52.55
2023-03-23T21:00:16.715Z,52.96
2023-03-23T21:03:23.365Z,52.22
2023-03-23T21:06:32.478Z,52.54
2023-03-23T21:09:49.669Z,52.15
2023-03-23T21:12:53.970Z,52.00
2023-03-23T21:15:58.172Z,52.34
2023-03-23T21:19:15.681Z,52.19
2023-03-23T21:22:25.711Z,52.42
2023-03-23T21:25:38.505Z,52.99
2023-03-23T21:28:45.988Z,52.97
2023-03-23T21:32:08.688Z,53.27
2023-03-23T21:35:15.569Z,53.37
2023-03-23T21:38:33.277Z,54.29
2023-03-23T21:41:42.146Z,54.16
2023-03-23T21:44:49.983Z,54.08
2023-03-23T21:48:07.121Z,54.23
2023-03-23T21:51:14.118Z,54.05
2023-03-23T21:57:47.082Z,54.39
2023-03-23T22:04:14.256Z,54.97
2023-03-23T22:07:32.182Z,54.98
2023-03-23T22:10:43.606Z,55.08
2023-03-23T22:14:19.002Z,55.24
2023-03-23T22:18:50.694Z,55.76
2023-03-23T22:21:51.627Z,55.82
2023-03-23T22:25:16.218Z,55.96
2023-03-23T22:28:31.131Z,55.63
2023-03-23T22:32:07.286Z,56.21
2023-03-23T22:35:31.424Z,55.57
2023-03-23T22:39:15.348Z,55.86
2023-03-23T22:42:49.346Z,55.69
2023-03-23T22:46:17.514Z,55.92
2023-03-23T22:53:43.833Z,56.63
2023-03-23T22:57:07.095Z,56.23
2023-03-23T23:03:41.598Z,56.69
2023-03-23T23:07:06.676Z,57.01
2023-03-23T23:11:15.308Z,57.41
2023-03-23T23:14:53.724Z,56.92
2023-03-23T23:18:52.614Z,55.91
2023-03-23T23:22:19.893Z,56.74
2023-03-23T23:25:42.127Z,56.59
2023-03-23T23:29:44.196Z,56.76
2023-03-23T23:40:57.997Z,56.57
2023-03-23T23:53:50.400Z,56.81
2023-03-23T23:57:27.652Z,56.95
